createdAt,value
2023-05-14T00:02:29.184Z,5.00
2023-05-14T00:05:02.556Z,6.00
2023-05-14T00:07:35.828Z,5.63
2023-05-14T00:10:09.829Z,5.65
2023-05-14T00:12:43.039Z,5.55
2023-05-14T00:15:16.256Z,5.93
2023-05-14T00:17:50.821Z,5.78
2023-05-14T00:20:24.354Z,5.10
2023-05-14T00:22:57.785Z,5.55
2023-05-14T00:25:31.333Z,5.63
2023-05-14T00:28:04.928Z,6.25
2023-05-14T00:30:39.770Z,6.43
2023-05-14T00:35:47.338Z,5.70
2023-05-14T00:38:20.580Z,5.82
2023-05-14T00:40:53.796Z,5.78
2023-05-14T00:43:27.093Z,6.20
2023-05-14T00:46:00.675Z,6.28
2023-05-14T00:48:35.409Z,6.28
2023-05-14T00:51:09.635Z,6.18
2023-05-14T00:53:43.374Z,6.72
2023-05-14T00:56:17.655Z,5.80
2023-05-14T00:58:50.881Z,6.60
2023-05-14T01:01:24.144Z,5.65
2023-05-14T01:03:59.591Z,5.32
2023-05-14T01:06:43.543Z,7.13
2023-05-14T01:09:23.668Z,6.03
2023-05-14T01:12:07.932Z,6.10
2023-05-14T01:14:46.160Z,5.60
2023-05-14T01:17:21.775Z,5.30
2023-05-14T01:19:57.666Z,5.72
2023-05-14T01:22:32.290Z,6.10
2023-05-14T01:25:06.417Z,5.88
2023-05-14T01:27:44.492Z,5.82
2023-05-14T01:30:23.136Z,5.60
2023-05-14T01:33:00.940Z,5.65
2023-05-14T01:35:34.709Z,5.03
2023-05-14T01:38:12.304Z,5.45
2023-05-14T01:40:46.277Z,6.50
2023-05-14T01:43:20.713Z,4.68
2023-05-14T01:45:55.375Z,5.30
2023-05-14T01:48:29.935Z,5.30
2023-05-14T01:51:03.363Z,6.13
2023-05-14T01:53:38.497Z,5.90
2023-05-14T01:56:11.751Z,6.53
2023-05-14T01:58:44.997Z,5.82
2023-05-14T02:01:18.450Z,5.50
2023-05-14T02:06:25.260Z,5.63
2023-05-14T02:09:00.139Z,5.90
2023-05-14T02:11:33.851Z,6.15
2023-05-14T02:14:07.077Z,5.75
2023-05-14T02:16:40.675Z,5.28
2023-05-14T02:19:14.204Z,6.05
2023-05-14T02:21:49.174Z,6.50
2023-05-14T02:24:23.763Z,5.35
2023-05-14T02:26:56.990Z,5.60
2023-05-14T02:29:30.278Z,5.30
2023-05-14T02:32:03.708Z,5.00
2023-05-14T02:34:36.919Z,5.38
2023-05-14T02:37:10.114Z,6.15
2023-05-14T02:39:45.002Z,6.00
2023-05-14T02:42:18.204Z,6.30
2023-05-14T02:44:52.310Z,6.82
2023-05-14T02:47:25.705Z,5.65
2023-05-14T02:49:58.951Z,5.68
2023-05-14T02:52:32.291Z,5.43
2023-05-14T02:55:07.907Z,7.15
2023-05-14T02:57:41.134Z,6.07
2023-05-14T03:00:15.081Z,5.97
2023-05-14T03:02:48.904Z,6.90
2023-05-14T03:07:55.787Z,5.70
2023-05-14T03:10:30.367Z,6.22
2023-05-14T03:13:03.727Z,5.38
2023-05-14T03:15:36.953Z,5.88
2023-05-14T03:18:10.314Z,6.15
2023-05-14T03:20:43.579Z,6.50
2023-05-14T03:23:17.508Z,6.25
2023-05-14T03:25:52.804Z,6.85
2023-05-14T03:28:26.262Z,5.93
2023-05-14T03:30:59.737Z,6.43
2023-05-14T03:33:33.123Z,5.63
2023-05-14T03:36:07.314Z,6.60
2023-05-14T03:38:40.553Z,5.45
2023-05-14T03:41:15.140Z,5.75
2023-05-14T03:43:49.090Z,6.53
2023-05-14T03:46:22.343Z,5.70
2023-05-14T03:48:55.794Z,6.15
2023-05-14T03:51:28.994Z,6.22
2023-05-14T03:54:04.268Z,5.72
2023-05-14T03:56:39.159Z,6.82
2023-05-14T03:59:12.365Z,7.00
2023-05-14T04:01:45.975Z,6.53
2023-05-14T04:04:19.249Z,6.38
2023-05-14T04:06:52.476Z,6.10
2023-05-14T04:09:25.693Z,6.35
2023-05-14T04:12:00.342Z,6.30
2023-05-14T04:14:33.804Z,5.90
2023-05-14T04:17:07.098Z,6.35
2023-05-14T04:19:40.520Z,6.35
2023-05-14T04:22:13.755Z,6.35
2023-05-14T04:24:46.976Z,6.20
2023-05-14T04:27:22.504Z,5.53
2023-05-14T04:29:55.906Z,6.88
2023-05-14T04:32:30.324Z,5.55
2023-05-14T04:35:04.294Z,6.32
2023-05-14T04:37:37.850Z,6.60
2023-05-14T04:40:12.666Z,6.50
2023-05-14T04:42:47.292Z,5.75
2023-05-14T04:45:20.956Z,6.55
2023-05-14T04:47:54.259Z,6.10
2023-05-14T04:50:27.624Z,5.60
2023-05-14T04:53:00.952Z,4.68
2023-05-14T04:55:34.262Z,5.90
2023-05-14T04:58:08.865Z,6.15
2023-05-14T05:00:42.088Z,5.63
2023-05-14T05:03:15.574Z,5.63
2023-05-14T05:05:48.960Z,5.13
2023-05-14T05:08:22.161Z,5.88
2023-05-14T05:10:55.339Z,5.72
2023-05-14T05:13:29.881Z,5.90
2023-05-14T05:16:03.140Z,5.82
2023-05-14T05:18:36.613Z,5.85
2023-05-14T05:21:09.905Z,6.05
2023-05-14T05:23:43.201Z,5.50
2023-05-14T05:26:16.758Z,5.50
2023-05-14T05:28:51.411Z,5.90
2023-05-14T05:31:24.661Z,5.82
2023-05-14T05:33:58.311Z,6.20
2023-05-14T05:36:32.042Z,6.10
2023-05-14T05:39:05.351Z,5.53
2023-05-14T05:41:38.641Z,5.72
2023-05-14T05:44:13.190Z,6.05
2023-05-14T05:46:46.452Z,4.72
2023-05-14T05:49:19.887Z,5.45
2023-05-14T05:51:53.233Z,5.22
2023-05-14T05:54:27.201Z,6.10
2023-05-14T05:57:00.757Z,4.28
2023-05-14T05:59:36.167Z,5.75
2023-05-14T06:02:09.396Z,6.43
2023-05-14T06:04:42.637Z,5.50
2023-05-14T06:07:15.849Z,5.95
2023-05-14T06:09:49.041Z,5.47
2023-05-14T06:12:22.778Z,5.30
2023-05-14T06:14:57.993Z,5.10
2023-05-14T06:17:31.254Z,5.68
2023-05-14T06:20:07.953Z,5.07
2023-05-14T06:22:41.220Z,4.57
2023-05-14T06:25:14.466Z,5.53
2023-05-14T06:27:47.751Z,6.05
2023-05-14T06:30:22.825Z,6.05
2023-05-14T06:32:56.435Z,5.05
2023-05-14T06:35:29.661Z,5.35
2023-05-14T06:38:02.948Z,5.45
2023-05-14T06:40:36.167Z,5.32
2023-05-14T06:43:09.473Z,6.35
2023-05-14T06:45:44.055Z,5.65
2023-05-14T06:48:19.188Z,5.43
2023-05-14T06:50:52.464Z,5.13
2023-05-14T06:53:25.766Z,4.80
2023-05-14T06:55:59.185Z,5.97
2023-05-14T06:58:32.416Z,4.93
2023-05-14T07:01:07.531Z,5.07
2023-05-14T07:03:40.818Z,5.50
2023-05-14T07:06:14.054Z,5.22
2023-05-14T07:08:47.347Z,5.57
2023-05-14T07:11:20.587Z,4.68
2023-05-14T07:13:53.914Z,4.45
2023-05-14T07:16:28.623Z,4.35
2023-05-14T07:19:02.068Z,4.60
2023-05-14T07:21:36.098Z,4.80
2023-05-14T07:24:09.515Z,5.22
2023-05-14T07:26:42.708Z,4.78
2023-05-14T07:29:15.956Z,4.85
2023-05-14T07:31:50.602Z,4.95
2023-05-14T07:34:24.027Z,4.68
2023-05-14T07:36:57.562Z,4.40
2023-05-14T07:39:30.984Z,4.95
2023-05-14T07:42:05.481Z,4.88
2023-05-14T07:44:38.786Z,5.13
2023-05-14T07:47:13.378Z,4.57
2023-05-14T07:49:46.672Z,4.82
2023-05-14T07:52:19.940Z,4.30
2023-05-14T07:54:53.485Z,4.50
2023-05-14T07:57:27.261Z,4.57
2023-05-14T08:02:35.111Z,4.80
2023-05-14T08:05:09.785Z,5.07
2023-05-14T08:07:43.404Z,4.93
2023-05-14T08:10:16.588Z,5.47
2023-05-14T08:12:49.809Z,5.35
2023-05-14T08:15:23.713Z,5.40
2023-05-14T08:18:03.588Z,5.47
2023-05-14T08:20:36.988Z,4.82
2023-05-14T08:23:10.342Z,4.55
2023-05-14T08:25:43.737Z,4.40
2023-05-14T08:28:16.967Z,4.32
2023-05-14T08:30:50.256Z,4.85
2023-05-14T08:33:25.051Z,5.15
2023-05-14T08:36:00.486Z,4.22
2023-05-14T08:38:33.878Z,3.88
2023-05-14T08:41:08.516Z,4.60
2023-05-14T08:43:48.671Z,4.85
2023-05-14T08:46:25.258Z,4.55
2023-05-14T08:49:09.605Z,4.05
2023-05-14T08:51:43.416Z,4.43
2023-05-14T08:54:18.085Z,5.22
2023-05-14T08:56:53.260Z,4.28
2023-05-14T08:59:26.698Z,4.30
2023-05-14T09:02:02.704Z,4.50
2023-05-14T09:04:38.078Z,4.55
2023-05-14T09:07:12.448Z,4.20
2023-05-14T09:09:46.175Z,4.72
2023-05-14T09:12:19.699Z,4.90
2023-05-14T09:14:52.984Z,4.82
2023-05-14T09:17:27.721Z,4.28
2023-05-14T09:20:02.824Z,4.78
2023-05-14T09:22:36.402Z,4.38
2023-05-14T09:25:12.357Z,4.15
2023-05-14T09:27:50.252Z,4.68
2023-05-14T09:30:23.896Z,3.95
2023-05-14T09:32:57.358Z,3.75
2023-05-14T09:35:32.476Z,4.13
2023-05-14T09:38:05.766Z,3.97
2023-05-14T09:40:39.334Z,3.53
2023-05-14T09:43:13.982Z,4.15
2023-05-14T09:45:47.350Z,4.55
2023-05-14T09:48:22.329Z,4.38
2023-05-14T09:50:57.119Z,4.35
2023-05-14T09:53:31.636Z,3.92
2023-05-14T09:56:05.118Z,3.90
2023-05-14T09:58:38.428Z,3.67
2023-05-14T10:01:12.007Z,3.92
2023-05-14T10:03:45.692Z,4.10
2023-05-14T10:08:57.198Z,3.67
2023-05-14T10:11:33.796Z,3.95
2023-05-14T10:14:10.093Z,4.40
2023-05-14T10:16:47.743Z,4.32
2023-05-14T10:19:24.606Z,3.78
2023-05-14T10:22:06.135Z,3.70
2023-05-14T10:24:39.883Z,3.72
2023-05-14T10:29:54.493Z,4.13
2023-05-14T10:32:28.515Z,4.25
2023-05-14T10:35:03.214Z,3.63
2023-05-14T10:37:37.751Z,3.90
2023-05-14T10:40:11.335Z,4.00
2023-05-14T10:42:45.455Z,3.67
2023-05-14T10:45:18.708Z,3.03
2023-05-14T10:47:52.071Z,3.78
2023-05-14T10:50:28.025Z,3.33
2023-05-14T10:53:03.356Z,3.55
2023-05-14T10:55:36.680Z,4.22
2023-05-14T10:58:11.541Z,3.45
2023-05-14T11:00:49.862Z,3.70
2023-05-14T11:03:23.169Z,3.03
2023-05-14T11:05:57.097Z,3.50
2023-05-14T11:11:05.365Z,3.60
2023-05-14T11:13:39.048Z,3.60
2023-05-14T11:16:22.780Z,3.58
2023-05-14T11:19:03.512Z,3.28
2023-05-14T11:21:37.089Z,3.10
2023-05-14T11:24:12.243Z,2.92
2023-05-14T11:26:46.203Z,3.58
2023-05-14T11:29:19.601Z,3.40
2023-05-14T11:31:52.910Z,3.67
2023-05-14T11:34:26.282Z,3.70
2023-05-14T11:36:59.576Z,3.45
2023-05-14T11:39:36.038Z,3.50
2023-05-14T11:42:14.567Z,3.50
2023-05-14T11:44:49.952Z,3.28
2023-05-14T11:47:23.708Z,3.53
2023-05-14T11:49:56.932Z,3.10
2023-05-14T11:52:30.155Z,3.70
2023-05-14T11:55:06.192Z,3.80
2023-05-14T11:57:39.482Z,3.40
2023-05-14T12:00:16.772Z,3.85
2023-05-14T12:02:50.503Z,3.88
2023-05-14T12:05:23.830Z,3.95
2023-05-14T12:07:57.206Z,3.20
2023-05-14T12:10:42.271Z,3.42
2023-05-14T12:13:17.178Z,3.55
2023-05-14T12:15:56.438Z,3.53
2023-05-14T12:18:31.669Z,3.08
2023-05-14T12:21:08.289Z,2.88
2023-05-14T12:23:41.576Z,3.45
2023-05-14T12:26:16.210Z,3.45
2023-05-14T12:28:49.485Z,3.47
2023-05-14T12:31:29.779Z,3.20
2023-05-14T12:34:03.724Z,3.58
2023-05-14T12:39:10.504Z,3.33
2023-05-14T12:44:18.587Z,2.78
2023-05-14T12:46:51.991Z,2.78
2023-05-14T12:49:25.420Z,2.97
2023-05-14T12:52:13.131Z,3.17
2023-05-14T12:54:51.868Z,3.30
2023-05-14T12:57:26.938Z,3.42
2023-05-14T13:00:00.372Z,2.88
2023-05-14T13:02:33.579Z,3.05
2023-05-14T13:05:15.756Z,3.28
2023-05-14T13:07:49.014Z,3.13
2023-05-14T13:10:22.335Z,3.50
2023-05-14T13:12:57.912Z,3.40
2023-05-14T13:15:32.490Z,3.28
2023-05-14T13:18:06.268Z,3.38
2023-05-14T13:23:14.496Z,3.80
2023-05-14T13:25:49.741Z,2.97
2023-05-14T13:28:24.600Z,2.85
2023-05-14T13:31:06.887Z,3.03
2023-05-14T13:33:42.774Z,3.10
2023-05-14T13:36:16.410Z,3.30
2023-05-14T13:38:49.631Z,2.88
2023-05-14T13:41:22.814Z,3.45
2023-05-14T13:43:57.364Z,3.35
2023-05-14T13:46:30.863Z,3.40
2023-05-14T13:49:04.152Z,3.15
2023-05-14T13:51:37.384Z,2.92
2023-05-14T13:54:10.652Z,2.58
2023-05-14T13:56:43.886Z,3.20
2023-05-14T13:59:18.874Z,3.05
2023-05-14T14:01:52.264Z,2.75
2023-05-14T14:04:29.095Z,3.63
2023-05-14T14:07:02.342Z,3.00
2023-05-14T14:09:36.934Z,3.40
2023-05-14T14:12:10.889Z,3.22
2023-05-14T14:14:45.565Z,2.67
2023-05-14T14:17:18.750Z,2.70
2023-05-14T14:19:52.182Z,3.28
2023-05-14T14:22:27.228Z,2.97
2023-05-14T14:25:02.339Z,3.28
2023-05-14T14:27:38.494Z,2.90
2023-05-14T14:30:16.488Z,2.83
2023-05-14T14:32:50.639Z,3.10
2023-05-14T14:35:24.556Z,2.75
2023-05-14T14:37:57.985Z,2.97
2023-05-14T14:40:31.336Z,3.25
2023-05-14T14:43:04.602Z,2.72
2023-05-14T14:46:00.675Z,2.80
2023-05-14T14:48:37.634Z,2.65
2023-05-14T14:51:12.033Z,2.53
2023-05-14T14:53:45.562Z,3.08
2023-05-14T14:56:18.754Z,3.15
2023-05-14T14:58:51.942Z,2.95
2023-05-14T15:01:26.816Z,2.70
2023-05-14T15:04:00.134Z,2.47
2023-05-14T15:06:33.343Z,2.67
2023-05-14T15:09:07.776Z,3.00
2023-05-14T15:11:41.460Z,2.95
2023-05-14T15:14:14.719Z,2.30
2023-05-14T15:16:51.055Z,2.63
2023-05-14T15:19:24.455Z,2.67
2023-05-14T15:21:57.792Z,2.65
2023-05-14T15:24:31.017Z,2.92
2023-05-14T15:27:04.260Z,2.72
2023-05-14T15:29:37.613Z,2.65
2023-05-14T15:32:12.216Z,2.92
2023-05-14T15:34:45.443Z,2.75
2023-05-14T15:37:18.748Z,2.78
2023-05-14T15:39:51.944Z,3.08
2023-05-14T15:42:26.353Z,3.00
2023-05-14T15:44:59.549Z,2.92
2023-05-14T15:47:34.155Z,2.67
2023-05-14T15:50:09.880Z,2.60
2023-05-14T15:52:43.147Z,2.83
2023-05-14T15:55:16.412Z,2.83
2023-05-14T15:57:49.605Z,3.03
2023-05-14T16:00:24.973Z,3.13
2023-05-14T16:02:59.856Z,2.33
2023-05-14T16:05:33.209Z,2.83
2023-05-14T16:08:06.868Z,2.70
2023-05-14T16:10:40.085Z,2.80
2023-05-14T16:13:13.421Z,2.17
2023-05-14T16:15:46.709Z,2.90
2023-05-14T16:18:22.089Z,2.75
2023-05-14T16:20:55.392Z,2.83
2023-05-14T16:23:28.846Z,3.08
2023-05-14T16:26:02.036Z,2.58
2023-05-14T16:28:35.246Z,2.75
2023-05-14T16:31:08.457Z,2.80
2023-05-14T16:33:43.071Z,2.40
2023-05-14T16:36:16.638Z,2.67
2023-05-14T16:39:06.858Z,2.60
2023-05-14T16:41:41.139Z,2.47
2023-05-14T16:44:14.333Z,3.00
2023-05-14T16:46:48.108Z,2.45
2023-05-14T16:51:56.125Z,2.25
2023-05-14T16:54:29.322Z,2.70
2023-05-14T16:57:02.619Z,2.70
2023-05-14T16:59:36.150Z,2.78
2023-05-14T17:02:09.356Z,2.83
2023-05-14T17:04:43.979Z,2.33
2023-05-14T17:07:17.211Z,2.58
2023-05-14T17:09:50.450Z,2.35
2023-05-14T17:12:23.662Z,2.38
2023-05-14T17:14:56.906Z,2.50
2023-05-14T17:17:31.088Z,2.35
2023-05-14T17:20:06.777Z,3.03
2023-05-14T17:22:40.118Z,2.72
2023-05-14T17:25:13.419Z,2.72
2023-05-14T17:27:46.588Z,2.22
2023-05-14T17:30:19.772Z,2.58
2023-05-14T17:32:53.042Z,2.40
2023-05-14T17:35:27.699Z,2.88
2023-05-14T17:38:00.951Z,2.55
2023-05-14T17:40:34.675Z,2.70
2023-05-14T17:43:08.524Z,2.60
2023-05-14T17:48:27.864Z,2.55
2023-05-14T17:51:02.434Z,2.63
2023-05-14T17:53:35.723Z,2.17
2023-05-14T17:56:08.990Z,2.20
2023-05-14T17:58:42.237Z,2.28
2023-05-14T18:01:15.527Z,2.10
2023-05-14T18:03:48.897Z,2.13
2023-05-14T18:06:23.602Z,2.40
2023-05-14T18:08:56.881Z,2.63
2023-05-14T18:11:33.784Z,2.30
2023-05-14T18:14:07.020Z,2.60
2023-05-14T18:16:40.415Z,2.38
2023-05-14T18:19:13.753Z,2.45
2023-05-14T18:21:49.451Z,2.65
2023-05-14T18:24:23.077Z,2.40
2023-05-14T18:26:56.379Z,2.33
2023-05-14T18:29:29.617Z,2.75
2023-05-14T18:32:02.843Z,2.55
2023-05-14T18:34:36.091Z,2.38
2023-05-14T18:37:10.810Z,2.50
2023-05-14T18:39:44.078Z,2.28
2023-05-14T18:42:18.714Z,2.47
2023-05-14T18:44:51.915Z,2.28
2023-05-14T18:47:25.254Z,2.38
2023-05-14T18:50:00.428Z,2.28
2023-05-14T18:52:35.246Z,2.50
2023-05-14T18:55:09.232Z,2.25
2023-05-14T18:57:42.500Z,2.60
2023-05-14T19:00:16.811Z,2.20
2023-05-14T19:02:50.229Z,2.25
2023-05-14T19:05:23.731Z,2.47
2023-05-14T19:07:59.463Z,2.30
2023-05-14T19:10:34.544Z,2.17
2023-05-14T19:13:07.877Z,2.28
2023-05-14T19:15:41.155Z,2.38
2023-05-14T19:18:14.597Z,2.40
2023-05-14T19:20:47.821Z,2.75
2023-05-14T19:23:22.334Z,2.47
2023-05-14T19:25:55.642Z,2.35
2023-05-14T19:28:28.846Z,2.55
2023-05-14T19:31:02.094Z,2.63
2023-05-14T19:33:35.435Z,2.33
2023-05-14T19:36:09.055Z,2.92
2023-05-14T19:38:43.653Z,2.10
2023-05-14T19:41:16.925Z,3.03
2023-05-14T19:43:50.183Z,2.17
2023-05-14T19:46:23.535Z,2.72
2023-05-14T19:48:56.730Z,2.72
2023-05-14T19:51:29.933Z,2.47
2023-05-14T19:54:04.688Z,2.55
2023-05-14T19:56:38.341Z,2.50
2023-05-14T19:59:11.663Z,2.45
2023-05-14T20:01:44.980Z,2.60
2023-05-14T20:04:18.199Z,3.13
2023-05-14T20:06:52.633Z,2.92
2023-05-14T20:09:27.309Z,2.63
2023-05-14T20:12:00.502Z,2.90
2023-05-14T20:14:33.687Z,2.67
2023-05-14T20:17:07.188Z,2.58
2023-05-14T20:19:41.195Z,2.65
2023-05-14T20:22:15.049Z,2.25
2023-05-14T20:29:56.028Z,2.40
2023-05-14T20:32:29.249Z,2.42
2023-05-14T20:35:03.087Z,2.55
2023-05-14T20:40:13.492Z,2.30
2023-05-14T20:42:46.778Z,2.40
2023-05-14T20:45:20.168Z,2.75
2023-05-14T20:47:53.409Z,2.60
2023-05-14T20:50:27.450Z,2.35
2023-05-14T20:53:00.912Z,2.40
2023-05-14T20:55:35.618Z,2.60
2023-05-14T20:58:08.863Z,2.33
2023-05-14T21:00:43.262Z,2.80
2023-05-14T21:03:16.677Z,2.85
2023-05-14T21:05:50.168Z,2.55
2023-05-14T21:08:23.584Z,2.67
2023-05-14T21:10:58.184Z,2.60
2023-05-14T21:13:31.423Z,2.67
2023-05-14T21:16:04.826Z,2.70
2023-05-14T21:18:38.124Z,2.50
2023-05-14T21:21:11.350Z,2.58
2023-05-14T21:23:44.563Z,2.58
2023-05-14T21:26:19.191Z,2.45
2023-05-14T21:28:52.454Z,2.88
2023-05-14T21:31:25.782Z,2.58
2023-05-14T21:33:59.010Z,2.40
2023-05-14T21:36:32.288Z,2.22
2023-05-14T21:39:05.599Z,2.47
2023-05-14T21:41:40.203Z,2.47
2023-05-14T21:44:13.418Z,2.75
2023-05-14T21:46:47.349Z,2.40
2023-05-14T21:49:20.569Z,2.40
2023-05-14T21:51:54.578Z,2.22
2023-05-14T21:54:27.734Z,2.67
2023-05-14T21:57:02.684Z,2.85
2023-05-14T21:59:37.320Z,2.67
2023-05-14T22:02:10.608Z,2.65
2023-05-14T22:04:43.785Z,2.35
2023-05-14T22:07:16.945Z,2.78
2023-05-14T22:09:50.337Z,2.72
2023-05-14T22:12:24.922Z,2.40
2023-05-14T22:14:58.147Z,2.47
2023-05-14T22:17:31.389Z,2.60
2023-05-14T22:20:06.961Z,2.88
2023-05-14T22:22:40.289Z,2.67
2023-05-14T22:25:13.489Z,2.63
2023-05-14T22:27:48.047Z,2.50
2023-05-14T22:30:21.338Z,2.75
2023-05-14T22:32:54.798Z,2.40
2023-05-14T22:35:28.098Z,2.20
2023-05-14T22:38:01.304Z,2.78
2023-05-14T22:40:34.534Z,2.67
2023-05-14T22:43:09.077Z,2.30
2023-05-14T22:45:42.363Z,2.20
2023-05-14T22:48:15.830Z,2.70
2023-05-14T22:50:49.036Z,2.63
2023-05-14T22:53:22.743Z,2.50
2023-05-14T22:55:56.569Z,2.42
2023-05-14T22:58:31.094Z,2.50
2023-05-14T23:01:04.698Z,2.58
2023-05-14T23:03:37.895Z,2.60
2023-05-14T23:06:13.729Z,2.65
2023-05-14T23:08:46.890Z,2.58
2023-05-14T23:11:20.099Z,2.70
2023-05-14T23:13:54.686Z,2.70
2023-05-14T23:16:27.968Z,3.03
2023-05-14T23:19:01.347Z,2.38
2023-05-14T23:21:34.877Z,2.78
2023-05-14T23:24:08.794Z,2.60
2023-05-14T23:26:42.088Z,2.38
2023-05-14T23:29:16.705Z,2.67
2023-05-14T23:31:49.974Z,2.67
2023-05-14T23:34:23.369Z,2.47
2023-05-14T23:36:56.703Z,2.65
2023-05-14T23:39:29.943Z,2.95
2023-05-14T23:42:03.170Z,2.85
2023-05-14T23:44:37.717Z,3.00
2023-05-14T23:47:11.125Z,2.45
2023-05-14T23:49:44.343Z,2.40
2023-05-14T23:52:17.508Z,2.63
2023-05-14T23:54:50.751Z,3.08
2023-05-14T23:57:24.209Z,3.00
2023-05-14T23:59:58.765Z,3.10
